createdAt,value
2018-05-06T00:00:42.364Z,101313.94
2018-05-06T00:03:10.727Z,101310.31
2018-05-06T00:05:39.018Z,101301.39
2018-05-06T00:08:08.006Z,101305.00
2018-05-06T00:10:36.377Z,101307.00
2018-05-06T00:13:04.759Z,101306.65
2018-05-06T00:15:33.093Z,101307.10
2018-05-06T00:18:03.036Z,101308.72
2018-05-06T00:20:32.164Z,101311.94
2018-05-06T00:23:01.232Z,101310.60
2018-05-06T00:25:29.574Z,101304.19
2018-05-06T00:27:57.864Z,101308.22
2018-05-06T00:30:30.885Z,101306.53
2018-05-06T00:32:59.232Z,101309.14
2018-05-06T00:35:28.286Z,101298.14
2018-05-06T00:37:56.614Z,101297.36
2018-05-06T00:40:25.269Z,101294.62
2018-05-06T00:42:53.575Z,101293.46
2018-05-06T00:45:22.684Z,101289.39
2018-05-06T00:47:51.007Z,101298.05
2018-05-06T00:50:19.320Z,101291.03
2018-05-06T00:52:48.380Z,101280.36
2018-05-06T00:55:16.700Z,101283.83
2018-05-06T00:57:45.014Z,101279.47
2018-05-06T01:00:13.368Z,101281.63
2018-05-06T01:02:41.746Z,101282.62
2018-05-06T01:05:10.002Z,101283.92
2018-05-06T01:07:38.313Z,101286.72
2018-05-06T01:10:06.619Z,101280.36
2018-05-06T01:12:34.957Z,101284.06
2018-05-06T01:15:03.250Z,101281.13
2018-05-06T01:17:31.574Z,101283.88
2018-05-06T01:19:59.882Z,101285.77
2018-05-06T01:22:28.349Z,101289.20
2018-05-06T01:24:56.667Z,101284.52
2018-05-06T01:27:24.975Z,101286.53
2018-05-06T01:29:53.292Z,101288.20
2018-05-06T01:32:21.681Z,101289.91
2018-05-06T01:34:49.965Z,101299.44
2018-05-06T01:37:18.258Z,101300.16
2018-05-06T01:39:46.614Z,101304.43
2018-05-06T01:42:14.912Z,101299.98
2018-05-06T01:44:43.246Z,101298.40
2018-05-06T01:47:12.281Z,101300.80
2018-05-06T01:49:40.669Z,101303.20
2018-05-06T01:52:08.948Z,101296.12
2018-05-06T01:54:38.030Z,101298.63
2018-05-06T01:57:06.339Z,101300.55
2018-05-06T01:59:35.480Z,101309.81
2018-05-06T02:02:03.789Z,101303.16
2018-05-06T02:04:32.674Z,101303.95
2018-05-06T02:07:00.982Z,101287.73
2018-05-06T02:09:29.297Z,101292.62
2018-05-06T02:11:58.365Z,101291.96
2018-05-06T02:14:26.616Z,101291.58
2018-05-06T02:16:54.961Z,101289.61
2018-05-06T02:19:24.070Z,101287.67
2018-05-06T02:21:52.332Z,101291.17
2018-05-06T02:24:20.608Z,101296.84
2018-05-06T02:26:48.924Z,101289.00
2018-05-06T02:29:17.199Z,101290.60
2018-05-06T02:31:45.495Z,101278.16
2018-05-06T02:34:13.805Z,101280.73
2018-05-06T02:36:46.909Z,101274.21
2018-05-06T02:39:15.214Z,101269.37
2018-05-06T02:41:43.535Z,101273.34
2018-05-06T02:44:11.845Z,101272.73
2018-05-06T02:46:40.284Z,101271.33
2018-05-06T02:49:08.593Z,101267.92
2018-05-06T02:51:37.648Z,101267.10
2018-05-06T02:54:06.703Z,101266.30
2018-05-06T02:56:35.145Z,101268.72
2018-05-06T02:59:04.418Z,101268.42
2018-05-06T03:01:32.746Z,101271.44
2018-05-06T03:04:01.801Z,101270.11
2018-05-06T03:06:30.359Z,101276.77
2018-05-06T03:08:58.648Z,101275.62
2018-05-06T03:11:26.980Z,101276.55
2018-05-06T03:13:55.353Z,101277.81
2018-05-06T03:16:24.399Z,101284.94
2018-05-06T03:18:52.709Z,101282.98
2018-05-06T03:21:21.027Z,101279.52
2018-05-06T03:23:49.348Z,101278.44
2018-05-06T03:26:17.659Z,101279.95
2018-05-06T03:28:45.970Z,101279.53
2018-05-06T03:31:14.239Z,101283.98
2018-05-06T03:33:42.544Z,101280.52
2018-05-06T03:36:10.824Z,101280.73
2018-05-06T03:38:39.604Z,101281.35
2018-05-06T03:41:07.929Z,101282.05
2018-05-06T03:43:37.012Z,101281.21
2018-05-06T03:46:05.357Z,101275.61
2018-05-06T03:48:33.649Z,101277.05
2018-05-06T03:51:01.994Z,101274.42
2018-05-06T03:53:30.325Z,101264.95
2018-05-06T03:59:47.241Z,101268.95
2018-05-06T04:05:12.122Z,101268.42
2018-05-06T04:07:44.383Z,101271.75
2018-05-06T04:10:16.575Z,101268.23
2018-05-06T04:12:44.885Z,101272.86
2018-05-06T04:15:13.323Z,101272.06
2018-05-06T04:17:41.882Z,101263.97
2018-05-06T04:20:10.968Z,101275.52
2018-05-06T04:22:40.119Z,101268.34
2018-05-06T04:25:13.267Z,101266.06
2018-05-06T04:27:45.682Z,101265.38
2018-05-06T04:30:14.850Z,101270.66
2018-05-06T04:32:47.035Z,101274.55
2018-05-06T04:35:15.617Z,101278.98
2018-05-06T04:37:44.372Z,101281.44
2018-05-06T04:40:12.822Z,101285.80
2018-05-06T04:42:42.213Z,101278.44
2018-05-06T04:45:10.534Z,101277.27
2018-05-06T04:47:39.660Z,101282.16
2018-05-06T04:50:08.844Z,101288.66
2018-05-06T04:52:41.376Z,101277.74
2018-05-06T04:55:09.725Z,101279.97
2018-05-06T04:57:42.271Z,101287.09
2018-05-06T05:00:11.383Z,101290.39
2018-05-06T05:02:39.761Z,101291.08
2018-05-06T05:05:10.727Z,101293.20
2018-05-06T05:07:39.140Z,101298.08
2018-05-06T05:10:09.727Z,101299.87
2018-05-06T05:12:38.055Z,101291.19
2018-05-06T05:15:07.159Z,101296.20
2018-05-06T05:17:42.310Z,101289.96
2018-05-06T05:20:10.611Z,101298.63
2018-05-06T05:22:40.710Z,101290.22
2018-05-06T05:25:12.995Z,101292.98
2018-05-06T05:27:42.085Z,101295.99
2018-05-06T05:30:10.395Z,101290.38
2018-05-06T05:32:38.760Z,101291.01
2018-05-06T05:35:07.050Z,101295.38
2018-05-06T05:37:35.400Z,101291.88
2018-05-06T05:40:03.784Z,101282.73
2018-05-06T05:42:32.162Z,101290.03
2018-05-06T05:45:00.530Z,101305.05
2018-05-06T05:47:29.663Z,101305.30
2018-05-06T05:50:04.227Z,101313.41
2018-05-06T05:52:33.326Z,101322.92
2018-05-06T05:55:02.403Z,101329.91
2018-05-06T05:57:30.707Z,101333.48
2018-05-06T05:59:59.006Z,101339.38
2018-05-06T06:02:28.080Z,101332.17
2018-05-06T06:04:58.380Z,101331.56
2018-05-06T06:07:26.705Z,101331.16
2018-05-06T06:09:55.048Z,101334.03
2018-05-06T06:12:24.148Z,101332.00
2018-05-06T06:14:53.781Z,101339.43
2018-05-06T06:17:22.096Z,101332.84
2018-05-06T06:19:50.438Z,101337.73
2018-05-06T06:22:18.770Z,101350.85
2018-05-06T06:24:50.948Z,101347.41
2018-05-06T06:27:19.279Z,101344.97
2018-05-06T06:29:47.617Z,101342.83
2018-05-06T06:32:16.015Z,101344.92
2018-05-06T06:34:48.477Z,101355.48
2018-05-06T06:37:17.524Z,101350.89
2018-05-06T06:39:45.896Z,101352.02
2018-05-06T06:42:14.209Z,101352.55
2018-05-06T06:44:42.517Z,101357.03
2018-05-06T06:47:14.509Z,101358.77
2018-05-06T06:52:17.367Z,101357.95
2018-05-06T06:54:46.452Z,101349.46
2018-05-06T06:57:15.564Z,101344.45
2018-05-06T06:59:43.886Z,101344.30
2018-05-06T07:02:12.329Z,101341.97
2018-05-06T07:04:45.250Z,101342.36
2018-05-06T07:07:13.737Z,101338.63
2018-05-06T07:09:42.135Z,101346.86
2018-05-06T07:12:10.465Z,101351.94
2018-05-06T07:14:38.797Z,101348.80
2018-05-06T07:17:07.317Z,101362.33
2018-05-06T07:19:35.681Z,101356.05
2018-05-06T07:22:04.839Z,101358.00
2018-05-06T07:24:37.304Z,101354.80
2018-05-06T07:27:09.868Z,101353.23
2018-05-06T07:29:39.232Z,101357.23
2018-05-06T07:32:08.386Z,101363.65
2018-05-06T07:34:37.500Z,101358.98
2018-05-06T07:37:05.814Z,101359.14
2018-05-06T07:39:34.941Z,101360.86
2018-05-06T07:42:03.628Z,101359.95
2018-05-06T07:44:31.965Z,101354.55
2018-05-06T07:47:01.513Z,101357.84
2018-05-06T07:49:30.470Z,101361.57
2018-05-06T07:52:03.874Z,101352.52
2018-05-06T07:54:32.295Z,101349.69
2018-05-06T07:57:00.920Z,101349.05
2018-05-06T07:59:35.061Z,101355.51
2018-05-06T08:02:03.547Z,101355.59
2018-05-06T08:04:31.932Z,101351.02
2018-05-06T08:07:04.479Z,101351.94
2018-05-06T08:09:37.579Z,101352.20
2018-05-06T08:12:07.534Z,101357.09
2018-05-06T08:14:36.894Z,101359.13
2018-05-06T08:17:11.518Z,101354.91
2018-05-06T08:19:45.950Z,101352.67
2018-05-06T08:22:14.425Z,101367.96
2018-05-06T08:24:44.651Z,101360.47
2018-05-06T08:27:12.972Z,101363.20
2018-05-06T08:29:41.857Z,101376.52
2018-05-06T08:32:12.515Z,101365.50
2018-05-06T08:37:18.759Z,101360.34
2018-05-06T08:39:48.097Z,101355.35
2018-05-06T08:42:16.584Z,101358.11
2018-05-06T08:44:48.955Z,101352.03
2018-05-06T08:47:17.316Z,101348.98
2018-05-06T08:49:46.400Z,101344.53
2018-05-06T08:52:14.788Z,101338.55
2018-05-06T08:54:43.955Z,101345.00
2018-05-06T08:57:12.250Z,101341.84
2018-05-06T08:59:40.667Z,101333.36
2018-05-06T09:02:08.971Z,101341.77
2018-05-06T09:04:37.346Z,101338.02
2018-05-06T09:07:06.068Z,101335.94
2018-05-06T09:09:34.845Z,101331.53
2018-05-06T09:12:03.697Z,101339.23
2018-05-06T09:14:32.109Z,101338.87
2018-05-06T09:17:02.638Z,101330.88
2018-05-06T09:19:31.065Z,101333.38
2018-05-06T09:22:01.888Z,101327.50
2018-05-06T09:24:31.186Z,101324.53
2018-05-06T09:27:00.512Z,101313.22
2018-05-06T09:29:30.255Z,101315.03
2018-05-06T09:32:00.608Z,101307.19
2018-05-06T09:34:38.784Z,101299.42
2018-05-06T09:37:16.752Z,101308.75
2018-05-06T09:39:45.225Z,101304.55
2018-05-06T09:42:18.278Z,101304.01
2018-05-06T09:44:47.605Z,101302.44
2018-05-06T09:47:20.240Z,101306.73
2018-05-06T09:49:53.614Z,101299.81
2018-05-06T09:52:25.970Z,101305.96
2018-05-06T09:54:54.886Z,101297.18
2018-05-06T09:57:27.037Z,101293.86
2018-05-06T09:59:57.328Z,101302.89
2018-05-06T10:02:25.859Z,101294.59
2018-05-06T10:04:54.296Z,101303.68
2018-05-06T10:07:25.751Z,101302.88
2018-05-06T10:09:54.721Z,101304.86
2018-05-06T10:12:23.113Z,101303.29
2018-05-06T10:14:55.508Z,101300.91
2018-05-06T10:17:30.467Z,101300.08
2018-05-06T10:20:07.019Z,101289.05
2018-05-06T10:22:38.901Z,101290.78
2018-05-06T10:25:08.159Z,101298.65
2018-05-06T10:27:36.461Z,101288.46
2018-05-06T10:30:05.499Z,101282.28
2018-05-06T10:32:33.997Z,101281.52
2018-05-06T10:35:02.313Z,101282.73
2018-05-06T10:37:31.379Z,101280.67
2018-05-06T10:40:00.650Z,101277.28
2018-05-06T10:42:29.749Z,101276.36
2018-05-06T10:45:01.922Z,101273.25
2018-05-06T10:47:35.154Z,101260.07
2018-05-06T10:50:03.476Z,101265.58
2018-05-06T10:52:32.617Z,101262.95
2018-05-06T10:55:01.000Z,101259.94
2018-05-06T10:57:29.357Z,101262.12
2018-05-06T10:59:57.736Z,101254.55
2018-05-06T11:02:26.034Z,101254.41
2018-05-06T11:05:00.139Z,101252.84
2018-05-06T11:07:28.497Z,101254.61
2018-05-06T11:09:57.649Z,101241.79
2018-05-06T11:12:25.963Z,101247.20
2018-05-06T11:14:55.839Z,101247.53
2018-05-06T11:17:24.947Z,101244.83
2018-05-06T11:19:53.998Z,101236.78
2018-05-06T11:22:22.380Z,101230.44
2018-05-06T11:24:50.732Z,101235.40
2018-05-06T11:27:19.997Z,101225.96
2018-05-06T11:29:48.410Z,101233.42
2018-05-06T11:35:04.289Z,101230.68
2018-05-06T11:53:49.264Z,101217.36
2018-05-06T11:56:18.394Z,101213.95
2018-05-06T11:58:51.372Z,101211.30
2018-05-06T12:01:20.673Z,101206.66
2018-05-06T12:03:49.800Z,101207.38
2018-05-06T12:06:18.204Z,101199.73
2018-05-06T12:08:46.630Z,101209.67
2018-05-06T12:11:15.681Z,101205.47
2018-05-06T12:13:44.069Z,101190.66
2018-05-06T12:16:13.630Z,101187.66
2018-05-06T12:18:42.636Z,101187.42
2018-05-06T12:21:10.951Z,101180.08
2018-05-06T12:23:43.627Z,101176.96
2018-05-06T12:26:11.898Z,101187.27
2018-05-06T12:28:40.193Z,101180.07
2018-05-06T12:31:08.538Z,101179.81
2018-05-06T12:33:36.952Z,101172.86
2018-05-06T12:36:06.025Z,101176.82
2018-05-06T12:38:40.297Z,101170.56
2018-05-06T12:41:08.618Z,101165.69
2018-05-06T12:43:41.771Z,101164.47
2018-05-06T12:46:10.868Z,101161.48
2018-05-06T12:48:40.801Z,101147.09
2018-05-06T12:51:13.208Z,101154.98
2018-05-06T12:53:45.544Z,101151.44
2018-05-06T12:56:13.918Z,101148.33
2018-05-06T12:58:42.292Z,101151.03
2018-05-06T13:01:10.637Z,101147.24
2018-05-06T13:03:39.883Z,101143.13
2018-05-06T13:06:11.765Z,101133.90
2018-05-06T13:08:41.011Z,101135.80
2018-05-06T13:11:10.173Z,101138.27
2018-05-06T13:13:41.305Z,101133.51
2018-05-06T13:16:14.081Z,101139.62
2018-05-06T13:18:43.394Z,101132.51
2018-05-06T13:21:11.852Z,101129.70
2018-05-06T13:23:40.234Z,101131.05
2018-05-06T13:26:08.692Z,101124.81
2018-05-06T13:28:37.120Z,101129.70
2018-05-06T13:31:09.853Z,101120.48
2018-05-06T13:33:39.093Z,101122.09
2018-05-06T13:36:08.355Z,101115.18
2018-05-06T13:38:37.460Z,101119.29
2018-05-06T13:41:06.662Z,101115.13
2018-05-06T13:43:35.934Z,101109.83
2018-05-06T13:46:05.168Z,101111.47
2018-05-06T13:48:33.609Z,101111.31
2018-05-06T13:51:02.931Z,101111.48
2018-05-06T13:53:32.354Z,101107.38
2018-05-06T13:56:05.145Z,101097.46
2018-05-06T13:58:40.239Z,101101.41
2018-05-06T14:01:14.247Z,101102.23
2018-05-06T14:03:44.284Z,101098.73
2018-05-06T14:06:12.726Z,101097.61
2018-05-06T14:08:45.768Z,101092.97
2018-05-06T14:11:18.383Z,101102.37
2018-05-06T14:13:46.881Z,101096.84
2018-05-06T14:16:16.103Z,101103.20
2018-05-06T14:18:45.246Z,101086.48
2018-05-06T14:21:13.721Z,101089.84
2018-05-06T14:23:43.652Z,101087.68
2018-05-06T14:26:15.914Z,101093.61
2018-05-06T14:28:45.117Z,101079.48
2018-05-06T14:31:14.450Z,101072.43
2018-05-06T14:33:44.535Z,101083.12
2018-05-06T14:36:21.268Z,101075.69
2018-05-06T14:38:49.613Z,101076.03
2018-05-06T14:41:18.879Z,101073.69
2018-05-06T14:43:48.169Z,101069.77
2018-05-06T14:49:42.204Z,101068.10
2018-05-06T14:52:12.460Z,101067.00
2018-05-06T14:54:41.762Z,101064.37
2018-05-06T14:57:10.935Z,101057.00
2018-05-06T14:59:43.703Z,101064.69
2018-05-06T15:02:16.126Z,101058.38
2018-05-06T15:04:44.470Z,101062.94
2018-05-06T15:07:12.970Z,101049.06
2018-05-06T15:09:41.269Z,101047.95
2018-05-06T15:12:30.713Z,101051.74
2018-05-06T15:14:59.026Z,101052.55
2018-05-06T15:17:31.460Z,101049.66
2018-05-06T15:20:03.934Z,101039.91
2018-05-06T15:22:33.346Z,101043.34
2018-05-06T15:25:06.975Z,101046.39
2018-05-06T15:27:35.814Z,101044.16
2018-05-06T15:30:05.505Z,101046.11
2018-05-06T15:32:38.274Z,101049.80
2018-05-06T15:35:06.716Z,101037.88
2018-05-06T15:37:35.952Z,101042.25
2018-05-06T15:40:08.316Z,101030.99
2018-05-06T15:42:36.728Z,101031.11
2018-05-06T15:45:09.694Z,101022.44
2018-05-06T15:47:47.317Z,101023.75
2018-05-06T15:50:15.780Z,101023.20
2018-05-06T15:52:44.158Z,101021.56
2018-05-06T15:55:13.153Z,101017.53
2018-05-06T15:57:42.043Z,101027.73
2018-05-06T16:00:11.405Z,101009.51
2018-05-06T16:03:12.282Z,101011.44
2018-05-06T16:05:42.001Z,101014.82
2018-05-06T16:08:11.390Z,101009.39
2018-05-06T16:10:41.503Z,101000.20
2018-05-06T16:13:09.969Z,101006.56
2018-05-06T16:15:40.011Z,101009.67
2018-05-06T16:18:15.564Z,101002.63
2018-05-06T16:20:44.216Z,100998.53
2018-05-06T16:23:12.898Z,101003.19
2018-05-06T16:25:42.639Z,100996.16
2018-05-06T16:28:11.158Z,101003.18
2018-05-06T16:30:39.784Z,100994.38
2018-05-06T16:33:08.358Z,100995.80
2018-05-06T16:35:41.116Z,101000.66
2018-05-06T16:38:16.001Z,101001.03
2018-05-06T16:40:48.263Z,100998.07
2018-05-06T16:43:17.268Z,100997.36
2018-05-06T16:45:51.376Z,100998.43
2018-05-06T16:48:20.350Z,100992.20
2018-05-06T16:50:49.903Z,101001.70
2018-05-06T16:53:19.818Z,100992.94
2018-05-06T16:55:48.472Z,100998.78
2018-05-06T16:58:18.214Z,100998.80
2018-05-06T17:00:47.028Z,100993.50
2018-05-06T17:03:15.823Z,100994.04
2018-05-06T17:05:45.299Z,100998.53
2018-05-06T17:08:14.156Z,101009.54
2018-05-06T17:10:42.829Z,101005.62
2018-05-06T17:13:15.688Z,101000.16
2018-05-06T17:15:45.318Z,101002.06
2018-05-06T17:18:14.108Z,100992.44
2018-05-06T17:20:43.453Z,100994.08
2018-05-06T17:23:12.984Z,100995.70
2018-05-06T17:25:41.418Z,101002.59
2018-05-06T17:28:09.789Z,101000.98
2018-05-06T17:30:42.249Z,101000.58
2018-05-06T17:33:10.692Z,101004.78
2018-05-06T17:35:39.265Z,101002.05
2018-05-06T17:38:07.661Z,101002.19
2018-05-06T17:40:36.755Z,101006.66
2018-05-06T17:43:06.205Z,101003.92
2018-05-06T17:45:34.785Z,100999.48
2018-05-06T17:48:03.395Z,101014.75
2018-05-06T17:50:31.849Z,101003.07
2018-05-06T17:53:01.342Z,101007.54
2018-05-06T17:55:30.547Z,100999.50
2018-05-06T17:57:59.709Z,101007.19
2018-05-06T18:00:28.119Z,101002.02
2018-05-06T18:02:56.755Z,101011.62
2018-05-06T18:05:25.195Z,101007.25
2018-05-06T18:07:53.781Z,101007.63
2018-05-06T18:10:22.233Z,101008.94
2018-05-06T18:12:50.683Z,101005.02
2018-05-06T18:15:19.197Z,100999.28
2018-05-06T18:17:47.848Z,101006.70
2018-05-06T18:20:16.344Z,101007.08
2018-05-06T18:22:44.753Z,101002.39
2018-05-06T18:25:13.277Z,101005.61
2018-05-06T18:27:41.824Z,101005.41
2018-05-06T18:30:15.294Z,101004.53
2018-05-06T18:32:43.769Z,101004.36
2018-05-06T18:35:12.182Z,101007.84
2018-05-06T18:37:41.389Z,101006.41
2018-05-06T18:40:10.532Z,101004.30
2018-05-06T18:42:38.934Z,101016.83
2018-05-06T18:45:11.426Z,101008.12
2018-05-06T18:47:40.096Z,101013.01
2018-05-06T18:50:08.695Z,101013.23
2018-05-06T18:52:37.008Z,101013.28
2018-05-06T18:55:09.590Z,101022.02
2018-05-06T18:57:37.932Z,101016.09
2018-05-06T19:00:06.240Z,101016.25
2018-05-06T19:02:34.692Z,101019.42
2018-05-06T19:05:03.634Z,101020.80
2018-05-06T19:07:32.103Z,101024.14
2018-05-06T19:10:00.480Z,101021.38
2018-05-06T19:12:28.844Z,101019.22
2018-05-06T19:14:58.292Z,101026.27
2018-05-06T19:17:26.988Z,101019.64
2018-05-06T19:19:55.649Z,101027.14
2018-05-06T19:22:24.090Z,101029.27
2018-05-06T19:24:53.370Z,101029.48
2018-05-06T19:27:21.744Z,101024.83
2018-05-06T19:29:54.541Z,101033.84
2018-05-06T19:32:22.846Z,101032.07
2018-05-06T19:34:51.182Z,101027.08
2018-05-06T19:37:19.568Z,101022.78
2018-05-06T19:39:47.999Z,101026.83
2018-05-06T19:42:16.296Z,101037.26
2018-05-06T19:44:44.670Z,101031.97
2018-05-06T19:47:13.072Z,101030.72
2018-05-06T19:49:41.634Z,101037.69
2018-05-06T19:52:09.999Z,101031.34
2018-05-06T19:54:38.412Z,101035.25
2018-05-06T19:57:06.792Z,101036.02
2018-05-06T19:59:35.284Z,101039.67
2018-05-06T20:02:04.173Z,101030.69
2018-05-06T20:04:32.581Z,101031.91
2018-05-06T20:07:01.835Z,101034.41
2018-05-06T20:09:30.323Z,101033.52
2018-05-06T20:11:58.717Z,101031.95
2018-05-06T20:14:27.136Z,101029.98
2018-05-06T20:16:55.975Z,101032.86
2018-05-06T20:19:24.305Z,101033.14
2018-05-06T20:21:52.664Z,101031.22
2018-05-06T20:24:20.951Z,101031.11
2018-05-06T20:26:49.280Z,101030.35
2018-05-06T20:29:17.670Z,101023.95
2018-05-06T20:31:46.016Z,101028.35
2018-05-06T20:34:14.358Z,101029.82
2018-05-06T20:36:43.494Z,101026.87
2018-05-06T20:39:11.931Z,101024.74
2018-05-06T20:41:41.070Z,101032.15
2018-05-06T20:44:09.515Z,101028.48
2018-05-06T20:46:38.622Z,101031.00
2018-05-06T20:49:07.016Z,101025.92
2018-05-06T20:51:35.337Z,101029.49
2018-05-06T20:54:03.719Z,101023.34
2018-05-06T20:56:32.044Z,101024.57
2018-05-06T20:59:00.383Z,101032.77
2018-05-06T21:01:28.791Z,101028.57
2018-05-06T21:03:57.241Z,101031.97
2018-05-06T21:06:32.934Z,101032.27
2018-05-06T21:09:11.192Z,101028.86
2018-05-06T21:11:48.358Z,101027.23
2018-05-06T21:14:26.677Z,101031.33
2018-05-06T21:16:56.678Z,101032.80
2018-05-06T21:19:35.740Z,101028.36
2018-05-06T21:22:11.680Z,101029.35
2018-05-06T21:25:04.027Z,101035.88
2018-05-06T21:27:32.486Z,101031.47
2018-05-06T21:30:01.647Z,101035.78
2018-05-06T21:32:33.981Z,101038.17
2018-05-06T21:35:03.097Z,101033.80
2018-05-06T21:37:31.500Z,101035.64
2018-05-06T21:40:00.618Z,101034.71
2018-05-06T21:42:29.001Z,101033.08
2018-05-06T21:44:57.452Z,101036.30
2018-05-06T21:47:25.819Z,101030.66
2018-05-06T21:49:54.170Z,101034.43
2018-05-06T21:52:22.540Z,101032.72
2018-05-06T21:54:50.876Z,101026.48
2018-05-06T21:57:19.271Z,101032.52
2018-05-06T21:59:47.983Z,101031.62
2018-05-06T22:02:16.330Z,101027.88
2018-05-06T22:04:45.666Z,101032.08
2018-05-06T22:07:14.177Z,101031.21
2018-05-06T22:09:42.585Z,101031.62
2018-05-06T22:12:11.073Z,101034.13
2018-05-06T22:14:39.458Z,101021.91
2018-05-06T22:17:07.788Z,101024.98
2018-05-06T22:19:36.202Z,101026.86
2018-05-06T22:22:05.636Z,101025.17
2018-05-06T22:24:33.980Z,101023.42
2018-05-06T22:27:03.093Z,101022.89
2018-05-06T22:29:31.442Z,101027.02
2018-05-06T22:31:59.845Z,101022.87
2018-05-06T22:34:28.137Z,101023.09
2018-05-06T22:36:56.476Z,101024.63
2018-05-06T22:39:25.619Z,101030.14
2018-05-06T22:41:54.034Z,101023.73
2018-05-06T22:44:22.338Z,101027.75
2018-05-06T22:46:52.304Z,101014.83
2018-05-06T22:49:20.609Z,101024.20
2018-05-06T22:51:49.976Z,101021.83
2018-05-06T22:54:18.356Z,101020.61
2018-05-06T22:56:46.691Z,101018.19
2018-05-06T22:59:15.830Z,101013.23
2018-05-06T23:01:44.174Z,101012.29
2018-05-06T23:04:13.277Z,101011.56
2018-05-06T23:06:42.342Z,101006.48
2018-05-06T23:09:10.653Z,101009.35
2018-05-06T23:11:39.070Z,101012.17
2018-05-06T23:14:07.514Z,101011.19
2018-05-06T23:16:35.868Z,101015.14
2018-05-06T23:19:04.218Z,101015.69
2018-05-06T23:21:32.582Z,101013.30
2018-05-06T23:24:00.882Z,101007.48
2018-05-06T23:26:29.214Z,101016.84
2018-05-06T23:28:57.515Z,101010.91
2018-05-06T23:31:25.857Z,101016.18
2018-05-06T23:33:54.161Z,101011.94
2018-05-06T23:36:22.536Z,101013.79
2018-05-06T23:38:50.870Z,101011.67
2018-05-06T23:41:19.228Z,101015.33
2018-05-06T23:43:47.583Z,101016.66
2018-05-06T23:46:15.917Z,101013.14
2018-05-06T23:48:45.152Z,101017.87
2018-05-06T23:51:13.957Z,101015.36
2018-05-06T23:53:42.377Z,101014.30
2018-05-06T23:56:11.615Z,101020.14
2018-05-06T23:58:40.032Z,101016.70
